KNEW/NEW METAR and TAF weather

Enter ICAO airport designator
Station Type Date Time Source
KNEW METAR 2019/11/18 08:53 UTC NOAA

KNEW 180853Z AUTO 29009KT 10SM SCT070 12/06 A2996 RMK AO2 SLP139 T01220061 55008


Station Type Date Time Source
KNEW Decoded METAR 2019/11/18 08:53 UTC NOAA

NEW ORLEANS LAKEFRONT AIRPORT , LA, United States (KNEW) 30-03N 90-02W 3M
Nov 18, 2019 - 03:53 AM EST / 2019.11.18 0853 UTC
Wind: from the WNW (290 degrees) at 10 MPH (9 KT):0
Visibility: 10 mile(s):0
Sky conditions: partly cloudy
Temperature: 54.0 F (12.2 C)
Dew Point: 43.0 F (6.1 C)
Relative Humidity: 66%
Pressure (altimeter): 29.96 in. Hg (1014 hPa)
Pressure tendency: 0.02 inches (0.8 hPa) lower than three hours ago
ob: KNEW 180853Z AUTO 29009KT 10SM SCT070 12/06 A2996 RMK AO2 SLP139 T01220061 55008
cycle: 9

Station Type Date Time Source
KNEW TAF 2019/11/18 06:24 UTC NOAA

TAF KNEW 180521Z 1806/1906 30008KT P6SM SCT080
FM181300 33006KT P6SM SKC
FM181800 30006KT P6SM SKC
FM190500 VRB04KT P6SM SKC

Example: see airport list